createdAt,value
2023-03-24T00:03:29.967Z,14.13
2023-03-24T00:08:36.882Z,12.77
2023-03-24T00:13:41.653Z,11.10
2023-03-24T00:18:43.397Z,11.17
2023-03-24T00:23:47.882Z,10.83
2023-03-24T00:28:49.776Z,10.20
2023-03-24T00:33:54.623Z,9.97
2023-03-24T00:38:58.005Z,9.53
2023-03-24T00:44:05.959Z,9.30
2023-03-24T00:49:12.294Z,8.73
2023-03-24T00:54:21.873Z,9.50
2023-03-24T00:59:29.670Z,9.20
2023-03-24T01:04:31.661Z,9.20
2023-03-24T01:09:36.392Z,9.20
2023-03-24T01:14:43.414Z,8.87
2023-03-24T01:19:45.696Z,8.87
2023-03-24T01:24:53.306Z,9.87
2023-03-24T01:30:01.715Z,9.33
2023-03-24T01:35:03.794Z,10.00
2023-03-24T01:40:10.151Z,9.27
2023-03-24T01:45:53.727Z,10.27
2023-03-24T01:51:03.399Z,10.30
2023-03-24T01:56:06.944Z,11.13
2023-03-24T02:01:17.587Z,10.23
2023-03-24T02:06:28.130Z,10.90
2023-03-24T02:11:34.438Z,11.00
2023-03-24T02:16:49.637Z,11.23
2023-03-24T02:22:32.841Z,9.57
2023-03-24T02:27:58.702Z,10.53
2023-03-24T02:33:23.344Z,13.33
2023-03-24T02:38:43.717Z,11.17
2023-03-24T02:44:06.691Z,10.77
2023-03-24T02:49:27.841Z,11.57
2023-03-24T02:54:48.459Z,11.50
2023-03-24T02:59:55.320Z,14.10
2023-03-24T03:05:28.193Z,12.02
2023-03-24T03:10:33.757Z,12.47
2023-03-24T03:15:44.717Z,10.95
2023-03-24T03:20:53.776Z,11.60
2023-03-24T03:26:09.820Z,10.30
2023-03-24T03:31:17.131Z,11.97
2023-03-24T03:36:46.473Z,10.65
2023-03-24T03:41:50.982Z,10.50
2023-03-24T03:46:53.259Z,10.98
2023-03-24T03:52:04.099Z,10.25
2023-03-24T03:57:09.132Z,9.30
2023-03-24T04:02:52.758Z,9.23
2023-03-24T04:07:58.131Z,9.27
2023-03-24T04:13:38.400Z,8.95
2023-03-24T04:19:25.458Z,8.43
2023-03-24T04:24:50.075Z,8.73
2023-03-24T04:30:02.554Z,7.72
2023-03-24T04:35:10.433Z,7.53
2023-03-24T04:40:33.167Z,5.90
2023-03-24T04:45:37.443Z,5.65
2023-03-24T04:51:03.331Z,4.90
2023-03-24T04:56:37.997Z,5.27
2023-03-24T05:01:50.072Z,4.35
2023-03-24T05:07:07.794Z,4.15
2023-03-24T05:12:09.857Z,4.43
2023-03-24T05:17:36.169Z,3.57
2023-03-24T05:22:38.924Z,4.55
2023-03-24T05:27:43.266Z,2.47
2023-03-24T05:32:57.142Z,3.43
2023-03-24T05:38:01.728Z,2.80
2023-03-24T05:43:03.745Z,3.00
2023-03-24T05:48:09.668Z,2.60
2023-03-24T05:53:31.675Z,3.13
2023-03-24T05:58:47.473Z,2.40
2023-03-24T06:03:50.043Z,2.30
2023-03-24T06:08:54.805Z,1.87
2023-03-24T06:14:00.523Z,2.43
2023-03-24T06:19:06.847Z,2.57
2023-03-24T06:24:27.276Z,1.43
2023-03-24T06:29:42.353Z,2.53
2023-03-24T06:34:52.811Z,3.20
2023-03-24T06:40:19.635Z,2.13
2023-03-24T06:45:28.628Z,2.63
2023-03-24T06:50:35.657Z,2.10
2023-03-24T06:55:43.596Z,2.73
2023-03-24T07:00:55.324Z,2.43
2023-03-24T07:06:40.449Z,2.08
2023-03-24T07:11:57.558Z,2.35
2023-03-24T07:16:59.772Z,2.35
2023-03-24T07:22:11.255Z,2.30
2023-03-24T07:27:34.824Z,2.80
2023-03-24T07:32:39.364Z,3.10
2023-03-24T07:37:43.473Z,2.75
2023-03-24T07:42:45.593Z,2.30
2023-03-24T07:48:05.862Z,4.15
2023-03-24T07:53:11.260Z,2.33
2023-03-24T07:58:15.593Z,2.47
2023-03-24T08:03:34.234Z,3.10
2023-03-24T08:09:10.418Z,3.03
2023-03-24T08:14:18.403Z,3.38
2023-03-24T08:19:23.971Z,2.70
2023-03-24T08:24:37.762Z,1.87
2023-03-24T08:29:42.950Z,2.58
2023-03-24T08:34:48.626Z,2.63
2023-03-24T08:39:54.883Z,2.78
2023-03-24T08:45:02.761Z,2.88
2023-03-24T08:50:11.417Z,2.73
2023-03-24T08:55:18.420Z,2.33
2023-03-24T09:00:29.421Z,3.03
2023-03-24T09:05:43.869Z,2.95
2023-03-24T09:10:51.790Z,1.65
2023-03-24T09:15:59.272Z,2.95
2023-03-24T09:21:02.204Z,2.90
2023-03-24T09:26:09.461Z,2.78
2023-03-24T09:31:15.598Z,3.40
2023-03-24T09:36:22.345Z,2.30
2023-03-24T09:41:31.875Z,2.97
2023-03-24T09:46:39.612Z,3.67
2023-03-24T09:51:45.212Z,3.28
2023-03-24T09:56:48.745Z,2.78
2023-03-24T10:01:54.866Z,2.75
2023-03-24T10:07:13.422Z,2.92
2023-03-24T10:12:48.779Z,3.55
2023-03-24T10:18:12.017Z,2.75
2023-03-24T10:23:39.458Z,3.30
2023-03-24T10:29:05.599Z,2.35
2023-03-24T10:34:15.743Z,3.75
2023-03-24T10:39:26.307Z,3.00
2023-03-24T10:44:40.503Z,3.40
2023-03-24T10:49:56.484Z,3.17
2023-03-24T10:55:06.605Z,2.70
2023-03-24T11:00:27.385Z,2.70
2023-03-24T11:05:37.180Z,3.05
2023-03-24T11:10:41.917Z,3.45
2023-03-24T11:16:06.288Z,2.67
2023-03-24T11:21:08.880Z,2.78
2023-03-24T11:26:21.943Z,3.13
2023-03-24T11:31:31.200Z,2.88
2023-03-24T11:36:40.325Z,2.38
2023-03-24T11:41:56.274Z,2.38
2023-03-24T11:47:09.711Z,1.98
2023-03-24T11:52:31.210Z,2.80
2023-03-24T11:57:55.071Z,3.22
2023-03-24T12:03:33.426Z,2.00
2023-03-24T12:08:57.444Z,2.63
2023-03-24T12:14:02.292Z,2.72
2023-03-24T12:19:26.833Z,2.30
2023-03-24T12:24:53.743Z,2.50
2023-03-24T12:30:07.039Z,3.63
2023-03-24T12:35:27.376Z,2.13
2023-03-24T12:40:46.855Z,2.20
2023-03-24T12:46:00.325Z,2.85
2023-03-24T12:51:12.267Z,2.67
2023-03-24T12:56:19.508Z,1.90
2023-03-24T13:01:21.917Z,2.33
2023-03-24T13:06:53.550Z,2.58
2023-03-24T13:12:08.095Z,2.88
2023-03-24T13:17:24.405Z,2.38
2023-03-24T13:22:28.576Z,2.47
2023-03-24T13:27:39.871Z,2.40
2023-03-24T13:32:49.666Z,2.42
2023-03-24T13:38:15.175Z,2.58
2023-03-24T13:43:27.347Z,2.20
2023-03-24T13:48:37.900Z,1.60
2023-03-24T13:53:47.896Z,2.08
2023-03-24T13:59:10.387Z,1.35
2023-03-24T14:04:19.356Z,2.38
2023-03-24T14:09:28.369Z,2.03
2023-03-24T14:14:35.559Z,2.90
2023-03-24T14:20:02.672Z,2.30
2023-03-24T14:25:32.449Z,2.42
2023-03-24T14:30:40.303Z,2.65
2023-03-24T14:35:46.689Z,2.25
2023-03-24T14:41:00.718Z,1.83
2023-03-24T14:46:06.796Z,2.05
2023-03-24T14:51:40.562Z,2.25
2023-03-24T14:56:48.377Z,2.00
2023-03-24T15:01:55.628Z,1.92
2023-03-24T15:07:01.011Z,1.90
2023-03-24T15:12:08.552Z,1.90
2023-03-24T15:17:24.784Z,1.92
2023-03-24T15:22:42.185Z,2.10
2023-03-24T15:27:52.649Z,1.92
2023-03-24T15:32:55.013Z,2.03
2023-03-24T15:37:57.309Z,2.08
2023-03-24T15:43:03.465Z,2.08
2023-03-24T15:48:15.667Z,2.50
2023-03-24T15:53:17.396Z,2.65
2023-03-24T15:58:24.583Z,1.75
2023-03-24T16:03:30.634Z,2.00
2023-03-24T16:08:39.242Z,2.20
2023-03-24T16:13:43.268Z,2.95
2023-03-24T16:18:47.159Z,2.22
2023-03-24T16:23:50.433Z,2.92
2023-03-24T16:28:57.004Z,2.00
2023-03-24T16:33:59.333Z,2.42
2023-03-24T16:39:01.730Z,3.25
2023-03-24T16:44:06.225Z,2.70
2023-03-24T16:49:10.431Z,2.13
2023-03-24T16:54:12.262Z,1.77
2023-03-24T16:59:14.838Z,2.45
2023-03-24T17:04:21.197Z,2.88
2023-03-24T17:09:28.628Z,2.03
2023-03-24T17:14:32.764Z,1.50
2023-03-24T17:19:38.270Z,2.00
2023-03-24T17:24:42.753Z,2.72
2023-03-24T17:29:46.534Z,2.65
2023-03-24T17:34:50.994Z,2.22
2023-03-24T17:39:55.764Z,2.63
2023-03-24T17:44:57.465Z,3.10
2023-03-24T17:49:59.792Z,2.80
2023-03-24T17:55:04.461Z,2.42
2023-03-24T18:00:10.262Z,2.60
2023-03-24T18:05:15.898Z,2.08
2023-03-24T18:10:20.366Z,2.20
2023-03-24T18:15:22.141Z,2.05
2023-03-24T18:20:26.570Z,3.28
2023-03-24T18:25:31.500Z,2.13
2023-03-24T18:30:36.266Z,1.92
2023-03-24T18:35:43.161Z,3.50
2023-03-24T18:40:45.163Z,2.17
2023-03-24T18:45:50.569Z,3.65
2023-03-24T18:50:52.926Z,4.90
2023-03-24T18:55:57.185Z,2.60
2023-03-24T19:01:06.890Z,2.92
2023-03-24T19:06:10.629Z,4.30
2023-03-24T19:11:16.040Z,6.22
2023-03-24T19:16:21.167Z,2.47
2023-03-24T19:21:24.471Z,2.03
2023-03-24T19:26:26.247Z,2.60
2023-03-24T19:31:30.601Z,2.90
2023-03-24T19:36:34.554Z,3.13
2023-03-24T19:41:36.522Z,3.60
2023-03-24T19:46:38.740Z,3.20
2023-03-24T19:51:40.818Z,3.37
2023-03-24T19:56:43.229Z,2.40
2023-03-24T20:01:45.071Z,2.90
2023-03-24T20:06:46.836Z,2.63
2023-03-24T20:11:48.710Z,3.13
2023-03-24T20:16:52.849Z,2.67
2023-03-24T20:21:54.703Z,2.10
2023-03-24T20:26:56.690Z,2.03
2023-03-24T20:32:01.094Z,2.13
2023-03-24T20:37:02.808Z,2.50
2023-03-24T20:42:06.894Z,2.20
2023-03-24T20:47:11.287Z,2.10
2023-03-24T20:52:16.179Z,2.27
2023-03-24T20:57:20.258Z,2.30
2023-03-24T21:02:24.829Z,2.33
2023-03-24T21:07:29.295Z,2.73
2023-03-24T21:12:34.148Z,1.90
2023-03-24T21:17:35.967Z,2.37
2023-03-24T21:22:56.226Z,2.47
2023-03-24T21:27:58.525Z,2.37
2023-03-24T21:33:02.835Z,2.10
2023-03-24T21:38:05.733Z,2.50
2023-03-24T21:43:07.490Z,3.20
2023-03-24T21:48:14.165Z,3.00
2023-03-24T21:53:19.002Z,2.70
2023-03-24T21:58:22.948Z,2.70
2023-03-24T22:03:25.762Z,2.40
2023-03-24T22:08:30.531Z,3.17
2023-03-24T22:13:34.809Z,2.80
2023-03-24T22:18:41.508Z,2.90
2023-03-24T22:23:43.564Z,2.70
2023-03-24T22:28:50.803Z,2.50
2023-03-24T22:33:53.550Z,2.43
2023-03-24T22:39:00.396Z,2.63
2023-03-24T22:44:04.848Z,2.90
2023-03-24T22:49:06.537Z,2.57
2023-03-24T22:54:08.530Z,3.03
2023-03-24T22:59:10.758Z,2.87
2023-03-24T23:04:12.580Z,3.30
2023-03-24T23:09:14.666Z,3.67
2023-03-24T23:14:18.357Z,3.67
2023-03-24T23:19:25.065Z,3.03
2023-03-24T23:24:29.185Z,3.20
2023-03-24T23:29:31.458Z,2.20
2023-03-24T23:34:34.993Z,2.57
2023-03-24T23:39:39.291Z,2.50
2023-03-24T23:44:43.075Z,2.53
2023-03-24T23:49:47.025Z,2.00
2023-03-24T23:54:48.663Z,2.77
2023-03-24T23:59:54.977Z,2.97
